Time;durP1;ratioP1;P1;durP2;ratioP2;P2;SDS_P1;SDS_P2;PMS_P1;PMS_P2;Temp;Humidity;BMP_temperature;BMP_pressure;BME280_temperature;BME280_humidity;BME280_pressure;Samples;Min_cycle;Max_cycle;Signal;HPM_P1;HPM_P2
2024/01/08 00:00:50;;;;;;;11.33;9.03;;;;;;;;;;5022267;28;20213;-70
2024/01/08 00:03:18;;;;;;;11.30;8.57;;;;;;;;;;5026349;28;20261;-71
2024/01/08 00:05:45;;;;;;;10.17;8.90;;;;;;;;;;5022441;28;20265;-71
2024/01/08 00:08:12;;;;;;;11.60;8.30;;;;;;;;;;5022490;28;20671;-71
2024/01/08 00:10:40;;;;;;;12.73;9.17;;;;;;;;;;5024892;28;20226;-71
2024/01/08 00:13:08;;;;;;;10.47;7.67;;;;;;;;;;5018434;28;20234;-71
2024/01/08 00:15:36;;;;;;;8.20;7.30;;;;;;;;;;5028707;28;20230;-70
2024/01/08 00:18:03;;;;;;;8.93;7.50;;;;;;;;;;5023747;28;20813;-71
2024/01/08 00:20:31;;;;;;;10.70;7.73;;;;;;;;;;5025019;28;20618;-70
2024/01/08 00:22:58;;;;;;;8.97;7.57;;;;;;;;;;5020524;28;20246;-71
2024/01/08 00:25:26;;;;;;;10.00;7.23;;;;;;;;;;5017362;28;20560;-71
2024/01/08 00:27:53;;;;;;;9.50;7.03;;;;;;;;;;5000528;28;20603;-71
2024/01/08 00:30:20;;;;;;;10.23;7.67;;;;;;;;;;5020831;28;20221;-70
2024/01/08 00:32:48;;;;;;;8.93;7.90;;;;;;;;;;5006345;28;20222;-70
2024/01/08 00:35:16;;;;;;;9.60;7.90;;;;;;;;;;5023469;28;20289;-71
2024/01/08 00:37:43;;;;;;;8.97;7.13;;;;;;;;;;5021890;28;20206;-69
2024/01/08 00:40:11;;;;;;;9.27;7.13;;;;;;;;;;5024671;28;20207;-70
2024/01/08 00:42:39;;;;;;;8.70;7.20;;;;;;;;;;5023232;28;20325;-70
2024/01/08 00:45:07;;;;;;;10.07;7.33;;;;;;;;;;5025509;28;20206;-70
2024/01/08 00:47:35;;;;;;;9.03;7.50;;;;;;;;;;5023592;28;20211;-71
2024/01/08 00:50:04;;;;;;;9.13;7.00;;;;;;;;;;5023362;28;20249;-70
2024/01/08 00:52:32;;;;;;;7.93;7.13;;;;;;;;;;5024706;28;20297;-70
2024/01/08 00:55:04;;;;;;;8.57;7.13;;;;;;;;;;5023657;28;20503;-71
2024/01/08 00:57:32;;;;;;;8.77;7.13;;;;;;;;;;5021020;28;20225;-70
2024/01/08 00:59:59;;;;;;;8.00;7.17;;;;;;;;;;5006028;28;20207;-69
2024/01/08 01:02:28;;;;;;;9.40;6.97;;;;;;;;;;5009953;28;20234;-70
2024/01/08 01:04:56;;;;;;;8.47;6.67;;;;;;;;;;5005050;28;20295;-71
2024/01/08 01:07:23;;;;;;;8.87;7.40;;;;;;;;;;5026268;28;20614;-71
2024/01/08 01:09:50;;;;;;;7.93;6.77;;;;;;;;;;5024232;28;20297;-71
2024/01/08 01:12:18;;;;;;;9.27;7.53;;;;;;;;;;5022312;28;20269;-71
2024/01/08 01:14:45;;;;;;;8.83;7.13;;;;;;;;;;5020956;28;20211;-72
2024/01/08 01:17:13;;;;;;;9.20;7.10;;;;;;;;;;5026839;28;20287;-71
2024/01/08 01:19:41;;;;;;;8.97;7.37;;;;;;;;;;5022309;28;20214;-70
2024/01/08 01:22:08;;;;;;;8.63;6.90;;;;;;;;;;5024182;28;20210;-71
2024/01/08 01:24:35;;;;;;;8.47;6.73;;;;;;;;;;5023588;28;20222;-71
2024/01/08 01:27:02;;;;;;;10.63;7.20;;;;;;;;;;5021725;28;20207;-70
2024/01/08 01:29:30;;;;;;;18.43;11.20;;;;;;;;;;5025121;28;20663;-69
2024/01/08 01:31:57;;;;;;;11.60;8.80;;;;;;;;;;5019268;28;20226;-69
2024/01/08 01:34:25;;;;;;;7.23;6.43;;;;;;;;;;5021578;28;20233;-70
2024/01/08 01:36:52;;;;;;;7.70;6.50;;;;;;;;;;5020403;28;20285;-69
2024/01/08 01:39:20;;;;;;;8.67;7.37;;;;;;;;;;5024741;28;20388;-70
2024/01/08 01:41:47;;;;;;;6.90;6.13;;;;;;;;;;5022957;28;20577;-69
2024/01/08 01:44:14;;;;;;;8.07;6.47;;;;;;;;;;5018550;28;20226;-70
2024/01/08 01:46:44;;;;;;;7.00;6.03;;;;;;;;;;5017971;28;20204;-70
2024/01/08 01:49:12;;;;;;;7.63;6.73;;;;;;;;;;5020650;28;20552;-69
2024/01/08 01:51:41;;;;;;;7.17;6.00;;;;;;;;;;5025081;28;20234;-70
2024/01/08 01:54:10;;;;;;;7.80;6.07;;;;;;;;;;5009705;28;20227;-69
2024/01/08 01:56:38;;;;;;;7.30;6.23;;;;;;;;;;5028020;28;20863;-70
2024/01/08 01:59:06;;;;;;;8.40;5.80;;;;;;;;;;5028228;28;20203;-70
2024/01/08 02:01:33;;;;;;;7.83;5.87;;;;;;;;;;5026386;28;20207;-71
2024/01/08 02:04:01;;;;;;;7.63;6.30;;;;;;;;;;5028281;28;20277;-70
2024/01/08 02:06:29;;;;;;;7.03;6.10;;;;;;;;;;5026905;28;20217;-70
2024/01/08 02:08:57;;;;;;;8.50;6.50;;;;;;;;;;5027241;28;20213;-70
2024/01/08 02:11:24;;;;;;;7.17;6.17;;;;;;;;;;5024548;28;20226;-70
2024/01/08 02:13:51;;;;;;;6.50;5.90;;;;;;;;;;5023400;28;20219;-70
2024/01/08 02:16:19;;;;;;;8.00;6.53;;;;;;;;;;5025825;28;20317;-70
2024/01/08 02:18:46;;;;;;;8.37;6.83;;;;;;;;;;5004729;28;20714;-71
2024/01/08 02:21:15;;;;;;;6.87;5.80;;;;;;;;;;5026452;28;20239;-69
2024/01/08 02:23:42;;;;;;;6.47;5.40;;;;;;;;;;5008059;28;20233;-69
2024/01/08 02:26:10;;;;;;;5.70;5.10;;;;;;;;;;5029743;28;20211;-70
2024/01/08 02:28:37;;;;;;;6.73;5.60;;;;;;;;;;5027399;28;20497;-70
2024/01/08 02:31:05;;;;;;;6.90;5.83;;;;;;;;;;5028071;28;20226;-70
2024/01/08 02:33:32;;;;;;;7.13;5.30;;;;;;;;;;5029253;28;20301;-72
2024/01/08 02:36:01;;;;;;;6.23;5.57;;;;;;;;;;5008191;28;20585;-69
2024/01/08 02:38:28;;;;;;;6.57;5.70;;;;;;;;;;5025398;28;20207;-70
2024/01/08 02:40:57;;;;;;;7.13;5.77;;;;;;;;;;5026429;28;20647;-70
2024/01/08 02:43:25;;;;;;;7.00;5.83;;;;;;;;;;5030284;28;20678;-70
2024/01/08 02:45:52;;;;;;;9.07;6.70;;;;;;;;;;5025461;28;20202;-70
2024/01/08 02:48:20;;;;;;;10.87;8.13;;;;;;;;;;5027121;28;20202;-70
2024/01/08 02:50:47;;;;;;;6.70;5.97;;;;;;;;;;5008356;28;20298;-70
2024/01/08 02:53:14;;;;;;;6.00;5.40;;;;;;;;;;5024750;28;20222;-70
2024/01/08 02:55:41;;;;;;;7.13;5.90;;;;;;;;;;5019125;28;20210;-70
2024/01/08 02:58:09;;;;;;;6.70;6.03;;;;;;;;;;5030450;28;20213;-70
2024/01/08 03:00:36;;;;;;;6.90;5.83;;;;;;;;;;5007224;28;20258;-70
2024/01/08 03:03:04;;;;;;;6.43;5.67;;;;;;;;;;5024028;28;20716;-70
2024/01/08 03:05:31;;;;;;;6.27;5.63;;;;;;;;;;5028915;28;20225;-70
2024/01/08 03:07:58;;;;;;;9.50;7.17;;;;;;;;;;5023277;28;20357;-70
2024/01/08 03:10:26;;;;;;;6.30;5.70;;;;;;;;;;5024548;28;20206;-70
2024/01/08 03:12:54;;;;;;;6.10;5.43;;;;;;;;;;5021628;28;20243;-70
2024/01/08 03:15:27;;;;;;;7.67;5.77;;;;;;;;;;5024522;28;20597;-71
2024/01/08 03:17:54;;;;;;;5.73;5.23;;;;;;;;;;5022100;28;20203;-71
2024/01/08 03:20:22;;;;;;;6.37;5.73;;;;;;;;;;5024541;28;20238;-70
2024/01/08 03:22:52;;;;;;;5.87;5.27;;;;;;;;;;5023018;28;20730;-70
2024/01/08 03:25:19;;;;;;;6.80;5.77;;;;;;;;;;5007178;28;20203;-70
2024/01/08 03:27:47;;;;;;;6.73;5.00;;;;;;;;;;5007615;28;20213;-70
2024/01/08 03:30:15;;;;;;;5.97;5.37;;;;;;;;;;5025628;28;20207;-70
2024/01/08 03:32:43;;;;;;;5.30;4.83;;;;;;;;;;5025124;28;20251;-70
2024/01/08 03:35:10;;;;;;;6.20;5.60;;;;;;;;;;5028036;28;20203;-70
2024/01/08 03:37:38;;;;;;;4.90;4.47;;;;;;;;;;5026589;28;20230;-69
2024/01/08 03:40:06;;;;;;;5.43;4.70;;;;;;;;;;5019338;28;20294;-70
2024/01/08 03:42:34;;;;;;;5.37;4.87;;;;;;;;;;5024646;28;20313;-71
2024/01/08 03:45:01;;;;;;;6.80;5.50;;;;;;;;;;5023483;28;20214;-70
2024/01/08 03:47:28;;;;;;;5.60;5.07;;;;;;;;;;5024239;28;20207;-70
2024/01/08 03:49:56;;;;;;;5.57;4.73;;;;;;;;;;5005589;28;20206;-70
2024/01/08 03:52:23;;;;;;;5.00;4.47;;;;;;;;;;5029909;28;20226;-70
2024/01/08 03:54:50;;;;;;;5.33;4.83;;;;;;;;;;5023470;28;20309;-70
2024/01/08 03:57:18;;;;;;;5.50;4.90;;;;;;;;;;5022466;28;20213;-70
2024/01/08 03:59:46;;;;;;;5.50;4.70;;;;;;;;;;5024113;28;20203;-70
2024/01/08 04:02:13;;;;;;;5.47;4.97;;;;;;;;;;5022820;28;20214;-70
2024/01/08 04:04:42;;;;;;;4.93;4.43;;;;;;;;;;5021025;28;20218;-69
2024/01/08 04:07:12;;;;;;;5.27;4.77;;;;;;;;;;5024825;28;20203;-70
2024/01/08 04:09:41;;;;;;;14.67;9.93;;;;;;;;;;5022545;28;20296;-70
2024/01/08 04:12:08;;;;;;;39.87;18.57;;;;;;;;;;5025947;28;20285;-70
2024/01/08 04:14:37;;;;;;;52.70;22.97;;;;;;;;;;5023479;28;20221;-69
2024/01/08 04:17:05;;;;;;;51.20;22.47;;;;;;;;;;5023847;28;20203;-70
2024/01/08 04:19:33;;;;;;;8.53;6.10;;;;;;;;;;5027124;28;20608;-69
2024/01/08 04:22:00;;;;;;;62.73;32.17;;;;;;;;;;5027226;28;20230;-70
2024/01/08 04:24:28;;;;;;;14.40;10.20;;;;;;;;;;5026267;28;20686;-70
2024/01/08 04:26:55;;;;;;;9.57;8.67;;;;;;;;;;5024388;28;20228;-70
2024/01/08 04:29:22;;;;;;;5.80;5.27;;;;;;;;;;5023252;28;20639;-69
2024/01/08 04:31:50;;;;;;;6.13;5.53;;;;;;;;;;5007569;28;20291;-70
2024/01/08 04:34:17;;;;;;;6.10;4.83;;;;;;;;;;5018808;28;20250;-70
2024/01/08 04:36:45;;;;;;;6.50;5.90;;;;;;;;;;5019554;28;20721;-70
2024/01/08 04:39:12;;;;;;;6.07;5.47;;;;;;;;;;5006421;28;20218;-71
2024/01/08 04:41:39;;;;;;;6.60;5.27;;;;;;;;;;5022500;28;20206;-70
2024/01/08 04:44:09;;;;;;;7.13;5.23;;;;;;;;;;5019378;28;21476;-69
2024/01/08 04:46:36;;;;;;;5.60;5.07;;;;;;;;;;5022683;28;20274;-70
2024/01/08 04:49:04;;;;;;;5.93;5.03;;;;;;;;;;5020128;28;20633;-70
2024/01/08 04:51:33;;;;;;;5.60;5.03;;;;;;;;;;5024196;28;20757;-70
2024/01/08 04:54:01;;;;;;;9.47;6.80;;;;;;;;;;4998294;28;20231;-70
2024/01/08 04:56:29;;;;;;;7.23;6.30;;;;;;;;;;5023520;28;20292;-70
2024/01/08 04:58:56;;;;;;;6.10;5.03;;;;;;;;;;5020690;28;20232;-69
2024/01/08 05:01:24;;;;;;;5.97;5.37;;;;;;;;;;5018961;28;20296;-69
2024/01/08 05:03:51;;;;;;;7.47;4.93;;;;;;;;;;5017263;28;20226;-70
2024/01/08 05:06:19;;;;;;;5.80;5.20;;;;;;;;;;5006616;28;20203;-69
2024/01/08 05:08:46;;;;;;;5.80;5.20;;;;;;;;;;5012940;28;20206;-70
2024/01/08 05:11:14;;;;;;;5.67;5.17;;;;;;;;;;5001150;28;20297;-69
2024/01/08 05:13:41;;;;;;;5.40;4.87;;;;;;;;;;5013105;28;20638;-70
2024/01/08 05:16:09;;;;;;;5.60;5.07;;;;;;;;;;5005971;28;20216;-69
2024/01/08 05:18:36;;;;;;;8.83;6.40;;;;;;;;;;5003440;28;20313;-70
2024/01/08 05:21:05;;;;;;;8.40;5.50;;;;;;;;;;5008809;28;20206;-70
2024/01/08 05:23:33;;;;;;;5.07;4.57;;;;;;;;;;5003783;28;20232;-70
2024/01/08 05:26:01;;;;;;;11.57;7.27;;;;;;;;;;4993488;28;22253;-70
2024/01/08 05:28:29;;;;;;;5.53;5.03;;;;;;;;;;5012879;28;20309;-70
2024/01/08 05:30:57;;;;;;;5.23;4.73;;;;;;;;;;5016367;28;20792;-70
2024/01/08 05:33:26;;;;;;;5.80;5.20;;;;;;;;;;5015681;28;20228;-69
2024/01/08 05:35:54;;;;;;;6.37;5.00;;;;;;;;;;5014756;28;20202;-70
2024/01/08 05:38:22;;;;;;;5.33;4.83;;;;;;;;;;5005722;28;20203;-69
2024/01/08 05:40:50;;;;;;;6.03;4.83;;;;;;;;;;5002782;28;20237;-69
2024/01/08 05:43:18;;;;;;;5.87;5.23;;;;;;;;;;5025072;28;20728;-72
2024/01/08 05:45:45;;;;;;;5.60;5.10;;;;;;;;;;5026081;28;20268;-71
2024/01/08 05:48:13;;;;;;;6.43;5.33;;;;;;;;;;5022713;28;20203;-71
2024/01/08 05:50:41;;;;;;;6.40;5.80;;;;;;;;;;5023959;28;20302;-72
2024/01/08 05:53:08;;;;;;;6.20;5.60;;;;;;;;;;5029727;28;20265;-71
2024/01/08 05:55:37;;;;;;;5.67;5.07;;;;;;;;;;5028877;28;20206;-71
2024/01/08 05:58:04;;;;;;;5.53;5.00;;;;;;;;;;5002788;28;20210;-72
2024/01/08 06:00:36;;;;;;;5.67;5.17;;;;;;;;;;5014565;28;20217;-72
2024/01/08 06:03:11;;;;;;;4.93;4.43;;;;;;;;;;5026941;28;20230;-72
2024/01/08 06:05:41;;;;;;;5.20;4.70;;;;;;;;;;5027095;28;20218;-71
2024/01/08 06:08:10;;;;;;;6.03;5.33;;;;;;;;;;5025161;28;20206;-71
2024/01/08 06:10:38;;;;;;;5.17;4.70;;;;;;;;;;5028489;28;20209;-71
2024/01/08 06:13:06;;;;;;;5.43;4.93;;;;;;;;;;5010804;28;20321;-72
2024/01/08 06:15:33;;;;;;;4.63;4.23;;;;;;;;;;5026864;28;20627;-72
2024/01/08 06:18:01;;;;;;;5.53;5.03;;;;;;;;;;5028171;28;20241;-71
2024/01/08 06:20:28;;;;;;;9.93;4.77;;;;;;;;;;5020645;28;21012;-71
2024/01/08 06:22:56;;;;;;;6.50;4.90;;;;;;;;;;5016730;28;20321;-71
2024/01/08 06:25:23;;;;;;;7.30;5.90;;;;;;;;;;5009368;28;20716;-70
2024/01/08 06:27:50;;;;;;;5.00;4.50;;;;;;;;;;5023097;28;20206;-72
2024/01/08 06:30:18;;;;;;;5.63;4.40;;;;;;;;;;5016976;28;20262;-71
2024/01/08 06:32:45;;;;;;;5.57;4.90;;;;;;;;;;5007162;28;20226;-71
2024/01/08 06:35:13;;;;;;;5.87;5.30;;;;;;;;;;5016557;28;20275;-71
2024/01/08 06:37:42;;;;;;;5.80;5.20;;;;;;;;;;5033503;28;20211;-71
2024/01/08 06:40:09;;;;;;;5.40;4.90;;;;;;;;;;5015841;28;20583;-72
2024/01/08 06:42:37;;;;;;;5.27;4.80;;;;;;;;;;5021584;28;20325;-72
2024/01/08 06:45:23;;;;;;;5.53;4.87;;;;;;;;;;5026258;28;20234;-72
2024/01/08 06:47:50;;;;;;;6.77;5.43;;;;;;;;;;5023425;28;20284;-72
2024/01/08 06:50:18;;;;;;;5.53;4.90;;;;;;;;;;5024801;28;20206;-71
2024/01/08 06:52:47;;;;;;;6.90;4.83;;;;;;;;;;5027014;28;20614;-71
2024/01/08 06:55:16;;;;;;;4.90;4.40;;;;;;;;;;5004200;28;20205;-72
2024/01/08 06:57:43;;;;;;;4.97;4.47;;;;;;;;;;5021181;28;20300;-71
2024/01/08 07:00:11;;;;;;;5.20;4.50;;;;;;;;;;5023247;28;20210;-71
2024/01/08 07:02:40;;;;;;;5.57;4.90;;;;;;;;;;5019528;28;20239;-72
2024/01/08 07:05:07;;;;;;;6.30;5.43;;;;;;;;;;5023752;28;20250;-72
2024/01/08 07:07:37;;;;;;;6.30;4.90;;;;;;;;;;5014984;28;20575;-72
2024/01/08 07:10:05;;;;;;;5.97;5.33;;;;;;;;;;5014394;28;20675;-72
2024/01/08 07:12:32;;;;;;;5.70;5.03;;;;;;;;;;5022711;28;20713;-73
2024/01/08 07:14:59;;;;;;;5.23;4.73;;;;;;;;;;5011167;28;20221;-71
2024/01/08 07:17:27;;;;;;;5.60;5.03;;;;;;;;;;5013221;28;20199;-72
2024/01/08 07:19:54;;;;;;;5.03;4.63;;;;;;;;;;5021028;28;20208;-72
2024/01/08 07:22:22;;;;;;;6.57;5.27;;;;;;;;;;5014788;28;20211;-72
2024/01/08 07:24:49;;;;;;;6.33;5.73;;;;;;;;;;5008898;28;20208;-71
2024/01/08 07:27:16;;;;;;;5.87;5.27;;;;;;;;;;5023577;28;20214;-72
2024/01/08 07:29:44;;;;;;;6.30;5.13;;;;;;;;;;5026933;28;20678;-71
2024/01/08 07:32:12;;;;;;;6.07;5.47;;;;;;;;;;5016113;28;20210;-71
2024/01/08 07:34:39;;;;;;;6.00;5.40;;;;;;;;;;5023699;28;20655;-72
2024/01/08 07:37:07;;;;;;;6.20;5.60;;;;;;;;;;5012320;28;20226;-71
2024/01/08 07:39:35;;;;;;;8.30;5.90;;;;;;;;;;5013231;28;20226;-71
2024/01/08 07:42:02;;;;;;;9.37;6.53;;;;;;;;;;5013647;28;20234;-71
2024/01/08 07:44:29;;;;;;;6.20;5.60;;;;;;;;;;5000977;28;20221;-70
2024/01/08 07:46:56;;;;;;;7.17;6.40;;;;;;;;;;4995999;28;20207;-72
2024/01/08 07:49:24;;;;;;;7.50;6.53;;;;;;;;;;4998194;28;20201;-72
2024/01/08 07:51:52;;;;;;;8.30;6.53;;;;;;;;;;4996756;28;20249;-72
2024/01/08 07:54:19;;;;;;;7.70;5.97;;;;;;;;;;5024312;28;20297;-70
2024/01/08 07:56:47;;;;;;;7.07;6.37;;;;;;;;;;5025663;28;20393;-70
2024/01/08 07:59:28;;;;;;;7.33;6.43;;;;;;;;;;5025512;28;20269;-72
2024/01/08 08:01:55;;;;;;;6.70;5.73;;;;;;;;;;5017841;28;20224;-73
2024/01/08 08:04:23;;;;;;;6.70;5.50;;;;;;;;;;5017902;28;20699;-71
2024/01/08 08:06:50;;;;;;;6.80;5.80;;;;;;;;;;5019035;28;20233;-71
2024/01/08 08:09:17;;;;;;;6.87;6.10;;;;;;;;;;5022538;28;20249;-72
2024/01/08 08:11:45;;;;;;;6.60;5.40;;;;;;;;;;5008714;28;20871;-70
2024/01/08 08:14:12;;;;;;;6.77;6.07;;;;;;;;;;5024340;28;20244;-72
2024/01/08 08:16:39;;;;;;;6.40;5.80;;;;;;;;;;5029850;28;20202;-72
2024/01/08 08:19:07;;;;;;;9.37;6.37;;;;;;;;;;5024334;28;20199;-72
2024/01/08 08:21:38;;;;;;;5.83;5.23;;;;;;;;;;5022711;28;20202;-73
2024/01/08 08:24:05;;;;;;;6.33;5.63;;;;;;;;;;5022002;28;20249;-71
2024/01/08 08:26:32;;;;;;;7.90;6.10;;;;;;;;;;5019138;28;20214;-71
2024/01/08 08:29:00;;;;;;;7.90;6.27;;;;;;;;;;5021852;28;21634;-72
2024/01/08 08:31:28;;;;;;;43.20;19.23;;;;;;;;;;5020577;28;20213;-72
2024/01/08 08:33:55;;;;;;;13.37;8.67;;;;;;;;;;5019663;28;20223;-73
2024/01/08 08:36:22;;;;;;;13.97;8.80;;;;;;;;;;5020005;28;20584;-72
2024/01/08 08:38:50;;;;;;;12.27;8.33;;;;;;;;;;5019898;28;20202;-72
2024/01/08 08:41:19;;;;;;;9.87;7.87;;;;;;;;;;5019952;28;20203;-71
2024/01/08 08:43:47;;;;;;;7.20;6.37;;;;;;;;;;5027738;28;20317;-72
2024/01/08 08:46:15;;;;;;;8.73;7.20;;;;;;;;;;5023444;28;20257;-72
2024/01/08 08:48:42;;;;;;;7.53;6.50;;;;;;;;;;5000243;28;20211;-72
2024/01/08 08:51:10;;;;;;;10.60;7.37;;;;;;;;;;5012351;28;20204;-72
2024/01/08 08:53:38;;;;;;;7.90;6.73;;;;;;;;;;5011224;28;20234;-72
2024/01/08 08:56:06;;;;;;;8.10;6.90;;;;;;;;;;5024738;28;20195;-72
2024/01/08 08:58:33;;;;;;;7.53;6.40;;;;;;;;;;5024023;28;20233;-70
2024/01/08 09:01:01;;;;;;;7.33;6.63;;;;;;;;;;5022163;28;20266;-71
2024/01/08 09:03:28;;;;;;;8.83;6.83;;;;;;;;;;5024387;28;20226;-72
2024/01/08 09:05:56;;;;;;;8.77;7.27;;;;;;;;;;5022197;28;20417;-72
2024/01/08 09:08:26;;;;;;;8.33;6.53;;;;;;;;;;5006701;28;20207;-72
2024/01/08 09:10:53;;;;;;;8.40;6.70;;;;;;;;;;5024469;28;20681;-72
2024/01/08 09:13:21;;;;;;;9.67;7.33;;;;;;;;;;5022419;28;20276;-72
2024/01/08 09:15:48;;;;;;;10.27;7.27;;;;;;;;;;5024888;28;20481;-72
2024/01/08 09:18:15;;;;;;;9.27;7.27;;;;;;;;;;5021783;28;20329;-72
2024/01/08 09:20:43;;;;;;;7.40;6.33;;;;;;;;;;5021196;28;20209;-71
2024/01/08 09:23:11;;;;;;;7.03;6.30;;;;;;;;;;5023330;28;20314;-73
2024/01/08 09:25:38;;;;;;;7.70;6.30;;;;;;;;;;5024309;28;20210;-71
2024/01/08 09:28:05;;;;;;;8.60;6.87;;;;;;;;;;5018222;28;20203;-71
2024/01/08 09:30:33;;;;;;;11.67;7.40;;;;;;;;;;5020132;28;20203;-71
2024/01/08 09:33:00;;;;;;;9.77;7.33;;;;;;;;;;5016662;28;20869;-72
2024/01/08 09:35:28;;;;;;;9.97;7.37;;;;;;;;;;5021465;28;20719;-72
2024/01/08 09:37:55;;;;;;;11.23;7.77;;;;;;;;;;5024676;28;20206;-72
2024/01/08 09:40:26;;;;;;;7.93;6.57;;;;;;;;;;5022734;28;20293;-72
2024/01/08 09:42:55;;;;;;;8.53;6.80;;;;;;;;;;5006373;28;20285;-72
2024/01/08 09:45:23;;;;;;;11.10;7.67;;;;;;;;;;5005930;28;20203;-72
2024/01/08 09:47:52;;;;;;;10.50;7.07;;;;;;;;;;5020092;28;20210;-72
2024/01/08 09:50:20;;;;;;;9.40;7.70;;;;;;;;;;5022491;28;20209;-71
2024/01/08 09:52:50;;;;;;;9.60;8.07;;;;;;;;;;5022775;28;20223;-71
2024/01/08 09:55:18;;;;;;;8.23;7.10;;;;;;;;;;5005203;28;20207;-71
2024/01/08 09:57:45;;;;;;;8.23;7.13;;;;;;;;;;5018737;28;20681;-71
2024/01/08 10:00:14;;;;;;;10.13;7.90;;;;;;;;;;5014419;28;20199;-72
2024/01/08 10:02:41;;;;;;;14.17;8.63;;;;;;;;;;5024650;28;20288;-73
2024/01/08 10:05:09;;;;;;;8.83;6.70;;;;;;;;;;5018814;28;20207;-71
2024/01/08 10:07:38;;;;;;;10.53;7.83;;;;;;;;;;5024097;28;20298;-71
2024/01/08 10:10:06;;;;;;;10.10;7.30;;;;;;;;;;5002001;28;20214;-71
2024/01/08 10:12:33;;;;;;;10.60;7.93;;;;;;;;;;5023385;28;20218;-72
2024/01/08 10:15:02;;;;;;;10.67;8.07;;;;;;;;;;5004206;28;20231;-71
2024/01/08 10:17:31;;;;;;;9.53;7.27;;;;;;;;;;5015268;28;20203;-72
2024/01/08 10:20:05;;;;;;;9.23;7.00;;;;;;;;;;5012905;28;20685;-70
2024/01/08 10:22:33;;;;;;;10.23;7.73;;;;;;;;;;5030661;28;20218;-72
2024/01/08 10:25:02;;;;;;;8.40;7.10;;;;;;;;;;5018605;28;22225;-71
2024/01/08 10:27:31;;;;;;;8.03;6.70;;;;;;;;;;5019225;28;20255;-71
2024/01/08 10:29:59;;;;;;;9.73;7.47;;;;;;;;;;5016565;28;20244;-71
2024/01/08 10:32:27;;;;;;;9.60;7.33;;;;;;;;;;5028886;28;20226;-72
2024/01/08 10:34:56;;;;;;;19.70;10.97;;;;;;;;;;5020290;28;20603;-71
2024/01/08 10:37:25;;;;;;;11.07;8.50;;;;;;;;;;5017924;28;20238;-71
2024/01/08 10:39:54;;;;;;;11.80;9.37;;;;;;;;;;5018220;28;20571;-71
2024/01/08 10:42:22;;;;;;;13.77;10.73;;;;;;;;;;5016137;28;20210;-71
2024/01/08 10:44:50;;;;;;;11.03;8.23;;;;;;;;;;5027520;28;20234;-70
2024/01/08 10:47:21;;;;;;;9.40;7.97;;;;;;;;;;5026326;28;20211;-72
2024/01/08 10:49:56;;;;;;;9.23;7.80;;;;;;;;;;5024212;28;20289;-71
2024/01/08 10:52:28;;;;;;;10.53;8.47;;;;;;;;;;5018600;28;20209;-71
2024/01/08 10:55:00;;;;;;;8.33;7.30;;;;;;;;;;5016275;28;20746;-72
2024/01/08 10:57:30;;;;;;;9.73;7.77;;;;;;;;;;5019811;28;20638;-72
2024/01/08 10:59:58;;;;;;;9.17;6.97;;;;;;;;;;5012472;28;20211;-72
2024/01/08 11:02:27;;;;;;;10.50;7.90;;;;;;;;;;5025028;28;20203;-71
2024/01/08 11:05:02;;;;;;;11.07;7.13;;;;;;;;;;5011801;28;20648;-72
2024/01/08 11:07:33;;;;;;;8.33;6.93;;;;;;;;;;5027572;28;20208;-71
2024/01/08 11:10:07;;;;;;;10.27;7.23;;;;;;;;;;5025057;28;20210;-71
2024/01/08 11:12:41;;;;;;;9.17;7.13;;;;;;;;;;5027766;28;20237;-72
2024/01/08 11:15:11;;;;;;;8.60;7.17;;;;;;;;;;5023293;28;20238;-71
2024/01/08 11:17:39;;;;;;;8.43;7.03;;;;;;;;;;4997830;28;20655;-72
2024/01/08 11:20:27;;;;;;;8.13;6.87;;;;;;;;;;5014988;28;20925;-71
2024/01/08 11:22:55;;;;;;;14.90;9.93;;;;;;;;;;5003712;28;20305;-72
2024/01/08 11:25:22;;;;;;;9.17;7.13;;;;;;;;;;5013518;28;21090;-71
2024/01/08 11:27:50;;;;;;;9.40;7.07;;;;;;;;;;5024375;28;20202;-67
2024/01/08 11:30:18;;;;;;;8.50;7.40;;;;;;;;;;5031098;28;20230;-66
2024/01/08 11:33:00;;;;;;;8.70;7.10;;;;;;;;;;5027408;28;20226;-68
2024/01/08 11:35:35;;;;;;;8.70;6.90;;;;;;;;;;5031779;28;20202;-68
2024/01/08 11:38:28;;;;;;;9.77;7.20;;;;;;;;;;5030457;28;20198;-68
2024/01/08 11:40:56;;;;;;;9.67;8.20;;;;;;;;;;5018723;28;20195;-68
2024/01/08 11:43:23;;;;;;;9.77;7.57;;;;;;;;;;5011330;28;20223;-67
2024/01/08 11:45:51;;;;;;;8.83;6.90;;;;;;;;;;5016019;28;20489;-67
2024/01/08 11:48:18;;;;;;;11.13;8.27;;;;;;;;;;5034757;28;20203;-66
2024/01/08 11:50:49;;;;;;;10.13;7.00;;;;;;;;;;5030319;28;20575;-69
2024/01/08 11:53:16;;;;;;;9.17;6.73;;;;;;;;;;5027494;28;20222;-68
2024/01/08 11:55:44;;;;;;;22.73;13.73;;;;;;;;;;5026384;28;20203;-67
2024/01/08 11:58:11;;;;;;;11.30;9.37;;;;;;;;;;5031786;28;20211;-67
2024/01/08 12:00:39;;;;;;;15.60;12.77;;;;;;;;;;5032856;28;20214;-66
2024/01/08 12:03:10;;;;;;;8.60;7.03;;;;;;;;;;5013809;28;20598;-69
2024/01/08 12:05:38;;;;;;;8.97;6.53;;;;;;;;;;5016618;28;20203;-69
2024/01/08 12:08:06;;;;;;;8.07;6.33;;;;;;;;;;5016696;28;20298;-66
2024/01/08 12:10:33;;;;;;;10.90;7.37;;;;;;;;;;5024230;28;20278;-64
2024/01/08 12:13:02;;;;;;;10.30;7.40;;;;;;;;;;5029843;28;20269;-68
2024/01/08 12:15:31;;;;;;;8.97;6.80;;;;;;;;;;5032295;28;20219;-69
2024/01/08 12:18:00;;;;;;;8.30;6.53;;;;;;;;;;5029998;28;20199;-69
2024/01/08 12:20:28;;;;;;;13.07;9.57;;;;;;;;;;5029434;28;20285;-68
2024/01/08 12:22:56;;;;;;;7.73;6.50;;;;;;;;;;5029249;28;20226;-67
2024/01/08 12:25:24;;;;;;;7.63;6.73;;;;;;;;;;5033461;28;20211;-70
2024/01/08 12:27:51;;;;;;;7.10;6.43;;;;;;;;;;5027020;28;20218;-67
2024/01/08 12:30:18;;;;;;;8.37;6.50;;;;;;;;;;5027955;28;20218;-66
2024/01/08 12:32:46;;;;;;;7.57;6.40;;;;;;;;;;5023066;28;20226;-67
2024/01/08 12:35:15;;;;;;;8.93;7.10;;;;;;;;;;5025760;28;20226;-69
2024/01/08 12:37:44;;;;;;;8.63;6.90;;;;;;;;;;5031077;28;20195;-69
2024/01/08 12:40:13;;;;;;;9.03;6.60;;;;;;;;;;5027259;28;20612;-68
2024/01/08 12:42:42;;;;;;;10.10;7.50;;;;;;;;;;5026861;28;20223;-65
2024/01/08 12:45:10;;;;;;;8.27;6.27;;;;;;;;;;5029119;28;20211;-67
2024/01/08 12:47:38;;;;;;;8.03;6.37;;;;;;;;;;5031865;28;20215;-67
2024/01/08 12:50:06;;;;;;;6.47;5.60;;;;;;;;;;5030874;28;20556;-69
2024/01/08 12:52:34;;;;;;;9.87;6.77;;;;;;;;;;5029318;28;20226;-67
2024/01/08 12:55:01;;;;;;;11.27;8.13;;;;;;;;;;5027643;28;20232;-69
2024/01/08 12:57:30;;;;;;;8.60;7.13;;;;;;;;;;5027093;28;20663;-69
2024/01/08 12:59:58;;;;;;;8.50;7.17;;;;;;;;;;5030803;28;20199;-69
2024/01/08 13:02:29;;;;;;;9.77;7.10;;;;;;;;;;5026663;28;20235;-67
2024/01/08 13:04:57;;;;;;;8.37;7.20;;;;;;;;;;5027011;28;20619;-68
2024/01/08 13:07:24;;;;;;;9.57;6.93;;;;;;;;;;5031982;28;20279;-69
2024/01/08 13:09:52;;;;;;;7.97;7.10;;;;;;;;;;5026374;28;20211;-69
2024/01/08 13:12:20;;;;;;;8.53;6.63;;;;;;;;;;5029774;28;20237;-67
2024/01/08 13:14:47;;;;;;;7.87;6.40;;;;;;;;;;5028840;28;20241;-68
2024/01/08 13:17:16;;;;;;;8.57;6.60;;;;;;;;;;5023414;28;20585;-67
2024/01/08 13:19:43;;;;;;;8.87;7.13;;;;;;;;;;5028604;28;20289;-66
2024/01/08 13:22:11;;;;;;;7.47;6.67;;;;;;;;;;5024579;28;20206;-70
2024/01/08 13:24:38;;;;;;;8.60;7.13;;;;;;;;;;5023854;28;20671;-70
2024/01/08 13:27:13;;;;;;;7.23;6.33;;;;;;;;;;5031602;28;20646;-67
2024/01/08 13:29:41;;;;;;;8.43;6.67;;;;;;;;;;5027766;28;20600;-65
2024/01/08 13:32:10;;;;;;;8.67;6.67;;;;;;;;;;5022058;28;20269;-68
2024/01/08 13:34:38;;;;;;;9.03;7.03;;;;;;;;;;5037260;28;20223;-69
2024/01/08 13:37:06;;;;;;;8.57;6.50;;;;;;;;;;5027363;28;20203;-68
2024/01/08 13:39:35;;;;;;;7.63;6.40;;;;;;;;;;5026573;28;20513;-66
2024/01/08 13:42:02;;;;;;;11.27;7.23;;;;;;;;;;5027908;28;20203;-68
2024/01/08 13:44:30;;;;;;;11.20;7.67;;;;;;;;;;5027437;28;20225;-69
2024/01/08 13:46:59;;;;;;;7.70;6.80;;;;;;;;;;5029267;28;20295;-68
2024/01/08 13:49:27;;;;;;;7.47;6.47;;;;;;;;;;5028074;28;20613;-67
2024/01/08 13:51:55;;;;;;;7.30;6.30;;;;;;;;;;5031680;28;20693;-70
2024/01/08 13:54:22;;;;;;;7.40;6.47;;;;;;;;;;5030448;28;20721;-68
2024/01/08 13:56:50;;;;;;;6.63;5.80;;;;;;;;;;5022695;28;20286;-67
2024/01/08 13:59:17;;;;;;;7.53;5.70;;;;;;;;;;5027227;28;20202;-68
2024/01/08 14:01:45;;;;;;;8.17;6.40;;;;;;;;;;5033954;28;20501;-69
2024/01/08 14:04:12;;;;;;;8.43;6.40;;;;;;;;;;5028702;28;20230;-67
2024/01/08 14:06:39;;;;;;;8.93;6.80;;;;;;;;;;5034735;28;20202;-68
2024/01/08 14:09:07;;;;;;;9.50;7.50;;;;;;;;;;5033845;28;20207;-67
2024/01/08 14:11:34;;;;;;;9.83;7.43;;;;;;;;;;5035595;28;20226;-67
2024/01/08 14:14:01;;;;;;;6.73;5.97;;;;;;;;;;5030767;28;20226;-67
2024/01/08 14:16:29;;;;;;;6.13;5.43;;;;;;;;;;4997852;28;20202;-68
2024/01/08 14:18:57;;;;;;;6.43;5.70;;;;;;;;;;5035082;28;20206;-67
2024/01/08 14:21:24;;;;;;;7.43;6.33;;;;;;;;;;5039438;28;20266;-66
2024/01/08 14:23:52;;;;;;;7.67;5.93;;;;;;;;;;5035042;28;20297;-68
2024/01/08 14:26:19;;;;;;;6.23;5.63;;;;;;;;;;5034367;28;20666;-70
2024/01/08 14:28:47;;;;;;;8.13;6.43;;;;;;;;;;5015580;28;20230;-67
2024/01/08 14:31:16;;;;;;;7.93;6.20;;;;;;;;;;5031306;28;20629;-68
2024/01/08 14:33:43;;;;;;;7.30;6.27;;;;;;;;;;5015861;28;20222;-69
2024/01/08 14:36:12;;;;;;;10.23;7.70;;;;;;;;;;5014299;28;20670;-67
2024/01/08 14:38:39;;;;;;;7.70;6.67;;;;;;;;;;5032010;28;20206;-68
2024/01/08 14:41:07;;;;;;;7.73;6.73;;;;;;;;;;5034009;28;20191;-67
2024/01/08 14:43:34;;;;;;;8.53;6.90;;;;;;;;;;5028584;28;20223;-69
2024/01/08 14:46:07;;;;;;;10.03;7.53;;;;;;;;;;5034361;28;20207;-67